Truth — WYV5559 — position and weather

sailwx.info

Track history (hours):
 
Tides and Currents Weather Stations Pressure Air Temp Water Temp Dewpoint Dewpoint Depression Visibility Wind Speed Wind Dir Waves Ship Positions

Truth

Owner: TRUTH AQUATIES INC, SANTA BARBARA, CA. More information available from US FCC via Universal Licensing System and Coast Guard Vessel Documentation Center.

Last reported at 2014-Nov-14 21:33 UTC. Time now 2014-Nov-22 01:45 UTC.
Position N 34°24' W 119°42'.

Length 22 m.

Type: Diving. MMSI: 367384840.

Date/timePositionNaut miles runAvg speedWind from/ knotsBaromVisibWave heightAir tempDewpointWater temp
2014-Nov-14 21:33N 34°24' W 119°42'  
2014-Nov-09 00:32N 34°23' W 119°41'9 9.7
2014-Nov-08 23:33N 34°16' W 119°48'10 9.6
2014-Nov-08 22:33N 34°07' W 119°54'9 8.9
2014-Nov-08 21:32N 33°59' W 119°57'2 2.1
2014-Nov-08 20:31N 33°57' W 119°58'0 0.2
2014-Nov-08 19:32N 33°57' W 119°58'1 0.4
2014-Nov-08 17:25N 33°56' W 119°59'0 0.4
2014-Nov-08 16:30N 33°56' W 119°58'6 3.0
2014-Nov-08 14:33N 34°02' W 119°58'10 9.6
2014-Nov-08 13:30N 34°12' W 119°55'910.0
2014-Nov-08 12:33N 34°18' W 119°46'7 6.8
2014-Nov-08 11:29N 34°24' W 119°42'0 0.0
2014-Nov-08 09:23N 34°24' W 119°42'0 0.0
2014-Nov-08 08:29N 34°24' W 119°42'0 0.0
2014-Nov-08 07:05N 34°24' W 119°42'0 0.0
2014-Nov-07 20:11N 34°24' W 119°42'0 0.0
2014-Nov-07 19:29N 34°24' W 119°42'0 0.0
2014-Nov-07 13:29N 34°24' W 119°42'0 0.0
2014-Nov-07 12:29N 34°24' W 119°42'0 0.0
2014-Nov-07 11:29N 34°24' W 119°42'0 0.0
2014-Nov-07 10:17N 34°24' W 119°42'0 0.0
2014-Nov-07 09:29N 34°24' W 119°42'0 0.0
2014-Nov-07 06:23N 34°24' W 119°42'0 0.0
2014-Nov-07 05:30N 34°24' W 119°42'0 0.0
2014-Nov-07 01:24N 34°24' W 119°42'  
Track history (hours):
 
Tides and Currents Weather Stations Pressure Air Temp Water Temp Dewpoint Dewpoint Depression Visibility Wind Speed Wind Dir Waves Ship Positions

Truth

Owner: TRUTH AQUATIES INC, SANTA BARBARA, CA. More information available from US FCC via Universal Licensing System and Coast Guard Vessel Documentation Center.

Last reported at 2014-Nov-14 21:33 UTC. Time now 2014-Nov-22 01:45 UTC.
Position N 34°24' W 119°42'.

Length 22 m.

Type: Diving. MMSI: 367384840.

Date/timePositionNaut miles runAvg speedWind from/ knotsBaromVisibWave heightAir tempDewpointWater temp
2014-Nov-14 21:33N 34°24' W 119°42'  
2014-Nov-09 00:32N 34°23' W 119°41'9 9.7
2014-Nov-08 23:33N 34°16' W 119°48'10 9.6
2014-Nov-08 22:33N 34°07' W 119°54'9 8.9
2014-Nov-08 21:32N 33°59' W 119°57'2 2.1
2014-Nov-08 20:31N 33°57' W 119°58'0 0.2
2014-Nov-08 19:32N 33°57' W 119°58'1 0.4
2014-Nov-08 17:25N 33°56' W 119°59'0 0.4
2014-Nov-08 16:30N 33°56' W 119°58'6 3.0
2014-Nov-08 14:33N 34°02' W 119°58'10 9.6
2014-Nov-08 13:30N 34°12' W 119°55'910.0
2014-Nov-08 12:33N 34°18' W 119°46'7 6.8
2014-Nov-08 11:29N 34°24' W 119°42'0 0.0
2014-Nov-08 09:23N 34°24' W 119°42'0 0.0
2014-Nov-08 08:29N 34°24' W 119°42'0 0.0
2014-Nov-08 07:05N 34°24' W 119°42'0 0.0
2014-Nov-07 20:11N 34°24' W 119°42'0 0.0
2014-Nov-07 19:29N 34°24' W 119°42'0 0.0
2014-Nov-07 13:29N 34°24' W 119°42'0 0.0
2014-Nov-07 12:29N 34°24' W 119°42'0 0.0
2014-Nov-07 11:29N 34°24' W 119°42'0 0.0
2014-Nov-07 10:17N 34°24' W 119°42'0 0.0
2014-Nov-07 09:29N 34°24' W 119°42'0 0.0
2014-Nov-07 06:23N 34°24' W 119°42'0 0.0
2014-Nov-07 05:30N 34°24' W 119°42'0 0.0
2014-Nov-07 01:24N 34°24' W 119°42'  

Dump ship's entire track history